Time,TemperatureF,DewpointF,PressureIn,WindDirection,WindDirectionDegrees,WindSpeedMPH,WindSpeedGustMPH,Humidity,HourlyPrecipIn,Conditions,Clouds,dailyrainin,SoftwareType,DateUTC
2013-01-05 00:00:00,25.2,18.7,30.03,WNW,290,12.0,19.0,76,0.00,CLR,CLR,0.00,WeatherDisplay:10.37,2013-01-05 05:00:00,
2013-01-05 00:04:00,25.2,18.7,30.03,WNW,292,11.4,11.4,76,0.00,CLR,,0.00,WeatherDisplay:10.37,2013-01-05 05:04:00,
2013-01-05 00:06:00,25.2,18.7,30.03,NNW,338,7.0,13.8,76,0.00,CLR,,0.00,WeatherDisplay:10.37,2013-01-05 05:06:00,
2013-01-05 00:11:00,25.0,18.5,30.03,WNW,292,8.1,10.4,76,0.00,CLR,,0.00,WeatherDisplay:10.37,2013-01-05 05:11:00,
2013-01-05 00:16:00,25.0,18.2,30.04,North,0,8.7,10.4,75,0.00,CLR,,0.00,WeatherDisplay:10.37,2013-01-05 05:16:00,
2013-01-05 00:21:00,25.0,18.2,30.04,NNW,338,8.7,8.7,75,0.00,CLR,,0.00,WeatherDisplay:10.37,2013-01-05 05:21:00,
2013-01-05 00:26:00,24.8,18.0,30.04,NW,315,12.3,15.0,75,0.00,CLR,,0.00,WeatherDisplay:10.37,2013-01-05 05:26:00,
2013-01-05 00:31:00,25.0,18.2,30.04,NW,315,11.1,19.6,75,0.00,CLR,,0.00,WeatherDisplay:10.37,2013-01-05 05:31:00,
2013-01-05 00:36:00,24.8,18.0,30.05,West,270,6.1,10.4,75,0.00,CLR,,0.00,WeatherDisplay:10.37,2013-01-05 05:36:00,
2013-01-05 00:41:00,25.0,18.2,30.05,WSW,248,3.1,13.8,75,0.00,CLR,,0.00,WeatherDisplay:10.37,2013-01-05 05:41:00,
2013-01-05 00:46:00,24.8,18.0,30.05,WSW,248,0.0,3.5,75,0.00,CLR,,0.00,WeatherDisplay:10.37,2013-01-05 05:46:00,
2013-01-05 00:51:00,24.8,18.0,30.06,SW,225,4.6,10.4,75,0.00,CLR,,0.00,WeatherDisplay:10.37,2013-01-05 05:51:00,
2013-01-05 00:56:00,24.8,18.0,30.06,South,180,1.5,4.6,75,0.00,CLR,,0.00,WeatherDisplay:10.37,2013-01-05 05:56:00,
2013-01-05 01:01:00,24.8,18.0,30.06,ENE,68,0.0,2.3,75,0.00,CLR,,0.00,WeatherDisplay:10.37,2013-01-05 06:01:00,
2013-01-05 01:06:00,24.8,18.0,30.06,West,270,4.0,6.9,75,0.00,CLR,,0.00,WeatherDisplay:10.37,2013-01-05 06:06:00,
2013-01-05 01:11:00,24.8,18.0,30.06,NW,315,6.7,6.7,75,0.00,CLR,,0.00,WeatherDisplay:10.37,2013-01-05 06:11:00,
2013-01-05 01:16:00,24.6,17.8,30.07,SSW,202,1.5,1.5,75,0.00,CLR,,0.00,WeatherDisplay:10.37,2013-01-05 06:16:00,
2013-01-05 01:21:00,24.6,17.8,30.07,WSW,248,2.8,3.5,75,0.00,CLR,,0.00,WeatherDisplay:10.37,2013-01-05 06:21:00,
2013-01-05 01:26:00,24.6,17.8,30.07,WSW,248,4.3,9.2,75,0.00,CLR,,0.00,WeatherDisplay:10.37,2013-01-05 06:26:00,
2013-01-05 01:31:00,24.8,18.0,30.07,NW,315,2.5,5.8,75,0.00,CLR,,0.00,WeatherDisplay:10.37,2013-01-05 06:31:00,
2013-01-05 01:36:00,24.8,18.0,30.08,NW,315,4.9,5.8,75,0.00,CLR,,0.00,WeatherDisplay:10.37,2013-01-05 06:36:00,
2013-01-05 01:41:00,24.8,18.0,30.08,North,0,7.0,7.0,75,0.00,CLR,,0.00,WeatherDisplay:10.37,2013-01-05 06:41:00,
2013-01-05 01:46:00,24.8,18.0,30.08,WNW,292,2.1,2.3,75,0.00,CLR,,0.00,WeatherDisplay:10.37,2013-01-05 06:46:00,
2013-01-05 01:51:00,24.6,17.8,30.08,West,270,6.7,6.7,75,0.00,CLR,,0.00,WeatherDisplay:10.37,2013-01-05 06:51:00,
2013-01-05 01:56:00,24.6,17.8,30.08,WNW,292,9.6,9.6,75,0.00,CLR,,0.00,WeatherDisplay:10.37,2013-01-05 06:56:00,
2013-01-05 02:01:00,24.6,17.8,30.08,West,270,7.0,9.2,75,0.00,CLR,,0.00,WeatherDisplay:10.37,2013-01-05 07:01:00,
2013-01-05 02:06:00,24.6,17.8,30.09,West,270,7.0,9.2,75,0.00,CLR,,0.00,WeatherDisplay:10.37,2013-01-05 07:06:00,
2013-01-05 02:11:00,24.6,17.8,30.09,WNW,292,11.7,12.7,75,0.00,CLR,,0.00,WeatherDisplay:10.37,2013-01-05 07:11:00,
2013-01-05 02:16:00,24.6,17.8,30.09,NW,315,6.7,12.7,75,0.00,CLR,,0.00,WeatherDisplay:10.37,2013-01-05 07:16:00,
2013-01-05 02:21:00,24.6,17.8,30.09,WNW,292,4.0,5.8,75,0.00,CLR,,0.00,WeatherDisplay:10.37,2013-01-05 07:21:00,
2013-01-05 02:26:00,24.4,17.6,30.09,NNW,338,6.4,10.4,75,0.00,CLR,,0.00,WeatherDisplay:10.37,2013-01-05 07:26:00,
2013-01-05 02:31:00,24.4,18.0,30.09,WNW,292,5.8,8.1,76,0.00,CLR,,0.00,WeatherDisplay:10.37,2013-01-05 07:31:00,
2013-01-05 02:36:00,24.4,18.0,30.09,NNW,338,5.8,8.1,76,0.00,CLR,,0.00,WeatherDisplay:10.37,2013-01-05 07:36:00,
2013-01-05 07:12:00,22.6,18.8,30.18,WNW,292,12.0,12.0,85,0.00,CLR,,0.00,WeatherDisplay:10.37,2013-01-05 12:12:00,
2013-01-05 07:17:00,22.6,18.8,30.17,WSW,248,8.1,11.5,85,0.00,CLR,,0.00,WeatherDisplay:10.37,2013-01-05 12:17:00,
2013-01-05 07:22:00,22.6,18.8,30.18,NNW,338,4.3,11.5,85,0.00,CLR,,0.00,WeatherDisplay:10.37,2013-01-05 12:22:00,
2013-01-05 07:27:00,22.6,18.8,30.18,NW,315,2.8,9.2,85,0.00,CLR,,0.00,WeatherDisplay:10.37,2013-01-05 12:27:00,
2013-01-05 07:32:00,22.6,18.8,30.18,West,270,7.6,8.1,85,0.00,CLR,,0.00,WeatherDisplay:10.37,2013-01-05 12:32:00,
2013-01-05 07:37:00,22.5,18.6,30.18,West,270,5.5,6.9,85,0.00,CLR,,0.00,WeatherDisplay:10.37,2013-01-05 12:37:00,
2013-01-05 07:42:00,22.5,18.6,30.18,WSW,248,6.1,6.1,85,0.00,CLR,,0.00,WeatherDisplay:10.37,2013-01-05 12:42:00,
2013-01-05 07:47:00,22.5,18.6,30.18,West,270,2.4,9.2,85,0.00,CLR,,0.00,WeatherDisplay:10.37,2013-01-05 12:47:00,
2013-01-05 07:52:00,22.5,18.6,30.19,West,270,0.0,4.6,85,0.00,CLR,,0.00,WeatherDisplay:10.37,2013-01-05 12:52:00,
2013-01-05 07:57:00,22.5,18.6,30.19,WSW,248,2.4,8.1,85,0.00,CLR,,0.00,WeatherDisplay:10.37,2013-01-05 12:57:00,
2013-01-05 08:02:00,22.6,18.8,30.20,WSW,248,7.8,9.2,85,0.00,CLR,,0.00,WeatherDisplay:10.37,2013-01-05 13:02:00,
2013-01-05 08:07:00,22.5,18.6,30.21,WSW,248,9.0,9.0,85,0.00,CLR,,0.00,WeatherDisplay:10.37,2013-01-05 13:07:00,
2013-01-05 08:12:00,22.6,18.8,30.21,WSW,248,8.1,8.1,85,0.00,CLR,,0.00,WeatherDisplay:10.37,2013-01-05 13:12:00,
2013-01-05 08:17:00,22.5,18.6,30.21,WSW,248,3.1,3.1,85,0.00,CLR,,0.00,WeatherDisplay:10.37,2013-01-05 13:17:00,
2013-01-05 08:22:00,22.6,18.8,30.21,NW,315,6.4,6.9,85,0.00,CLR,,0.00,WeatherDisplay:10.37,2013-01-05 13:22:00,
2013-01-05 08:27:00,22.6,18.8,30.21,WNW,292,4.3,5.8,85,0.00,CLR,,0.00,WeatherDisplay:10.37,2013-01-05 13:27:00,
2013-01-05 08:32:00,22.6,18.8,30.21,WSW,248,6.1,13.8,85,0.00,CLR,,0.00,WeatherDisplay:10.37,2013-01-05 13:32:00,
2013-01-05 08:37:00,22.6,18.8,30.22,West,270,5.2,5.2,85,0.00,CLR,,0.00,WeatherDisplay:10.37,2013-01-05 13:37:00,
2013-01-05 08:42:00,22.6,18.8,30.22,West,270,2.5,2.5,85,0.00,CLR,,0.00,WeatherDisplay:10.37,2013-01-05 13:42:00,
2013-01-05 08:47:00,22.6,19.1,30.22,WSW,248,2.8,3.5,86,0.00,CLR,,0.00,WeatherDisplay:10.37,2013-01-05 13:47:00,
2013-01-05 08:52:00,22.8,19.0,30.23,NW,315,4.3,4.6,85,0.00,CLR,,0.00,WeatherDisplay:10.37,2013-01-05 13:52:00,
2013-01-05 08:57:00,22.8,19.3,30.23,WSW,248,5.2,8.1,86,0.00,CLR,,0.00,WeatherDisplay:10.37,2013-01-05 13:57:00,
2013-01-05 09:02:00,23.0,19.4,30.23,WNW,292,4.9,5.8,86,0.00,CLR,,0.00,WeatherDisplay:10.37,2013-01-05 14:02:00,
2013-01-05 09:07:00,23.0,19.4,30.23,WNW,292,2.8,5.8,86,0.00,CLR,,0.00,WeatherDisplay:10.37,2013-01-05 14:07:00,
2013-01-05 09:12:00,23.2,19.6,30.23,WNW,292,3.7,3.7,86,0.00,CLR,,0.00,WeatherDisplay:10.37,2013-01-05 14:12:00,
2013-01-05 09:17:00,23.4,19.8,30.23,NW,315,2.5,2.5,86,0.00,CLR,,0.00,WeatherDisplay:10.37,2013-01-05 14:17:00,
2013-01-05 09:22:00,23.5,19.7,30.22,NW,315,4.0,4.6,85,0.00,CLR,,0.00,WeatherDisplay:10.37,2013-01-05 14:22:00,
2013-01-05 09:27:00,23.5,19.7,30.22,NNW,338,3.1,3.1,85,0.00,CLR,,0.00,WeatherDisplay:10.37,2013-01-05 14:27:00,
2013-01-05 09:32:00,23.7,19.9,30.22,WNW,292,4.3,4.6,85,0.00,CLR,,0.00,WeatherDisplay:10.37,2013-01-05 14:32:00,
2013-01-05 09:37:00,23.7,19.9,30.22,NNW,338,4.9,8.1,85,0.00,CLR,,0.00,WeatherDisplay:10.37,2013-01-05 14:37:00,
2013-01-05 09:42:00,23.9,20.0,30.22,WSW,248,4.6,6.9,85,0.00,CLR,,0.00,WeatherDisplay:10.37,2013-01-05 14:42:00,
2013-01-05 09:47:00,23.9,20.0,30.22,West,270,3.4,5.8,85,0.00,CLR,,0.00,WeatherDisplay:10.37,2013-01-05 14:47:00,
2013-01-05 09:52:00,23.9,20.0,30.23,West,270,5.2,5.2,85,0.00,CLR,,0.00,WeatherDisplay:10.37,2013-01-05 14:52:00,
2013-01-05 09:57:00,24.1,19.9,30.22,NNW,338,3.7,5.8,84,0.00,CLR,,0.00,WeatherDisplay:10.37,2013-01-05 14:57:00,
2013-01-05 10:02:00,24.1,19.9,30.22,NNW,338,5.2,5.2,84,0.00,CLR,,0.00,WeatherDisplay:10.37,2013-01-05 15:02:00,
2013-01-05 10:07:00,24.4,20.3,30.22,NW,315,5.5,5.8,84,0.00,CLR,,0.00,WeatherDisplay:10.37,2013-01-05 15:07:00,
2013-01-05 10:12:00,24.6,20.2,30.22,WNW,292,3.7,8.1,83,0.00,CLR,,0.00,WeatherDisplay:10.37,2013-01-05 15:12:00,
2013-01-05 10:17:00,24.6,20.2,30.22,NW,315,4.9,6.9,83,0.00,CLR,,0.00,WeatherDisplay:10.37,2013-01-05 15:17:00,
2013-01-05 10:22:00,24.6,20.2,30.22,NW,315,10.5,10.5,83,0.00,CLR,,0.00,WeatherDisplay:10.37,2013-01-05 15:22:00,
2013-01-05 10:27:00,25.0,20.5,30.22,NW,315,2.4,4.6,83,0.00,CLR,,0.00,WeatherDisplay:10.37,2013-01-05 15:27:00,
2013-01-05 10:32:00,25.0,20.3,30.22,NW,315,2.8,5.8,82,0.00,CLR,,0.00,WeatherDisplay:10.37,2013-01-05 15:32:00,
2013-01-05 10:37:00,25.0,20.3,30.22,NW,315,3.4,3.5,82,0.00,CLR,,0.00,WeatherDisplay:10.37,2013-01-05 15:37:00,
2013-01-05 10:42:00,25.2,20.4,30.23,West,270,5.2,6.9,82,0.00,CLR,,0.00,WeatherDisplay:10.37,2013-01-05 15:42:00,
2013-01-05 10:47:00,25.2,20.4,30.22,West,270,3.1,8.1,82,0.00,CLR,,0.00,WeatherDisplay:10.37,2013-01-05 15:47:00,
2013-01-05 10:52:00,25.5,21.1,30.22,West,270,8.7,8.7,83,0.00,CLR,,0.00,WeatherDisplay:10.37,2013-01-05 15:52:00,
2013-01-05 10:57:00,25.7,21.0,30.22,NW,315,3.7,9.2,82,0.00,CLR,,0.00,WeatherDisplay:10.37,2013-01-05 15:57:00,
2013-01-05 11:02:00,26.1,21.0,30.21,NW,315,5.2,5.2,81,0.00,CLR,,0.00,WeatherDisplay:10.37,2013-01-05 16:02:00,
2013-01-05 11:07:00,26.1,20.7,30.21,WNW,292,9.0,9.0,80,0.00,CLR,,0.00,WeatherDisplay:10.37,2013-01-05 16:07:00,
2013-01-05 11:12:00,25.9,20.9,30.21,WSW,248,5.2,5.8,81,0.00,CLR,,0.00,WeatherDisplay:10.37,2013-01-05 16:12:00,
2013-01-05 11:17:00,26.1,21.0,30.21,West,270,2.4,9.2,81,0.00,CLR,,0.00,WeatherDisplay:10.37,2013-01-05 16:17:00,
2013-01-05 11:22:00,26.2,21.2,30.21,WSW,248,8.1,8.1,81,0.00,CLR,,0.00,WeatherDisplay:10.37,2013-01-05 16:22:00,
2013-01-05 11:27:00,26.6,21.6,30.20,NW,315,8.1,10.4,81,0.00,CLR,,0.00,WeatherDisplay:10.37,2013-01-05 16:27:00,
2013-01-05 11:32:00,26.1,21.0,30.20,West,270,7.8,9.2,81,0.00,CLR,,0.00,WeatherDisplay:10.37,2013-01-05 16:32:00,
2013-01-05 11:37:00,26.1,20.7,30.19,NW,315,5.8,9.2,80,0.00,CLR,,0.00,WeatherDisplay:10.37,2013-01-05 16:37:00,
2013-01-05 11:42:00,26.2,21.2,30.19,NW,315,4.3,5.8,81,0.00,CLR,,0.00,WeatherDisplay:10.37,2013-01-05 16:42:00,
2013-01-05 11:47:00,26.4,21.4,30.19,West,270,5.2,5.2,81,0.00,CLR,,0.00,WeatherDisplay:10.37,2013-01-05 16:47:00,
2013-01-05 11:52:00,26.4,21.4,30.19,NW,315,4.6,5.8,81,0.00,CLR,,0.00,WeatherDisplay:10.37,2013-01-05 16:52:00,
2013-01-05 11:57:00,26.6,21.3,30.19,NW,315,4.9,4.9,80,0.00,CLR,,0.00,WeatherDisplay:10.37,2013-01-05 16:57:00,
2013-01-05 12:02:00,26.6,21.3,30.18,NNW,338,3.1,4.6,80,0.00,CLR,,0.00,WeatherDisplay:10.37,2013-01-05 17:02:00,
2013-01-05 12:07:00,27.0,21.6,30.18,West,270,5.5,5.5,80,0.00,CLR,,0.00,WeatherDisplay:10.37,2013-01-05 17:07:00,
2013-01-05 12:12:00,27.3,21.7,30.18,NW,315,4.0,4.0,79,0.00,CLR,,0.00,WeatherDisplay:10.37,2013-01-05 17:12:00,
2013-01-05 12:17:00,27.3,21.7,30.16,NW,315,2.1,5.8,79,0.00,CLR,,0.00,WeatherDisplay:10.37,2013-01-05 17:17:00,
2013-01-05 12:22:00,27.7,21.7,30.17,West,270,7.0,7.0,78,0.00,CLR,,0.00,WeatherDisplay:10.37,2013-01-05 17:22:00,
2013-01-05 12:27:00,27.7,21.7,30.17,NW,315,4.9,9.2,78,0.00,CLR,,0.00,WeatherDisplay:10.37,2013-01-05 17:27:00,
2013-01-05 12:32:00,28.0,21.8,30.17,NW,315,1.5,5.8,77,0.00,CLR,,0.00,WeatherDisplay:10.37,2013-01-05 17:32:00,
2013-01-05 12:37:00,28.4,22.1,30.17,WSW,248,1.5,5.8,77,0.00,CLR,,0.00,WeatherDisplay:10.37,2013-01-05 17:37:00,
2013-01-05 12:42:00,28.4,22.1,30.17,NNW,338,4.6,4.6,77,0.00,CLR,,0.00,WeatherDisplay:10.37,2013-01-05 17:42:00,
2013-01-05 12:47:00,28.6,22.3,30.17,NNW,338,2.1,4.6,77,0.00,CLR,,0.00,WeatherDisplay:10.37,2013-01-05 17:47:00,
2013-01-05 12:52:00,28.9,22.3,30.17,WSW,248,5.2,5.8,76,0.00,CLR,,0.00,WeatherDisplay:10.37,2013-01-05 17:52:00,
2013-01-05 12:57:00,29.5,22.8,30.16,NW,315,3.1,3.5,76,0.00,CLR,,0.00,WeatherDisplay:10.37,2013-01-05 17:57:00,
2013-01-05 13:02:00,29.7,22.7,30.16,West,270,5.8,5.8,75,0.00,CLR,,0.00,WeatherDisplay:10.37,2013-01-05 18:02:00,
2013-01-05 13:07:00,29.8,22.6,30.15,WSW,248,4.6,4.6,74,0.00,CLR,,0.00,WeatherDisplay:10.37,2013-01-05 18:07:00,
2013-01-05 13:12:00,30.0,23.1,30.15,WSW,248,6.7,6.7,75,0.00,CLR,,0.00,WeatherDisplay:10.37,2013-01-05 18:12:00,
2013-01-05 13:17:00,29.8,22.6,30.15,WSW,248,1.5,3.5,74,0.00,CLR,,0.00,WeatherDisplay:10.37,2013-01-05 18:17:00,
2013-01-05 13:22:00,29.8,22.9,30.15,West,270,5.5,5.5,75,0.00,CLR,,0.00,WeatherDisplay:10.37,2013-01-05 18:22:00,
2013-01-05 13:27:00,29.8,22.6,30.15,West,270,3.7,5.8,74,0.00,CLR,,0.00,WeatherDisplay:10.37,2013-01-05 18:27:00,
2013-01-05 13:32:00,30.0,22.7,30.14,WNW,292,4.3,4.3,74,0.00,CLR,,0.00,WeatherDisplay:10.37,2013-01-05 18:32:00,
2013-01-05 13:37:00,30.2,22.6,30.14,NW,315,4.9,4.9,73,0.00,CLR,,0.00,WeatherDisplay:10.37,2013-01-05 18:37:00,
2013-01-05 13:42:00,30.6,22.6,30.13,WSW,248,3.1,3.5,72,0.00,CLR,,0.00,WeatherDisplay:10.37,2013-01-05 18:42:00,
2013-01-05 13:47:00,30.7,22.8,30.13,NW,315,2.4,3.5,72,0.00,CLR,,0.00,WeatherDisplay:10.37,2013-01-05 18:47:00,
2013-01-05 13:52:00,31.5,22.8,30.13,NNW,338,1.5,3.5,70,0.00,CLR,,0.00,WeatherDisplay:10.37,2013-01-05 18:52:00,
2013-01-05 13:57:00,32.0,23.0,30.13,WSW,248,1.8,4.6,69,0.00,CLR,,0.00,WeatherDisplay:10.37,2013-01-05 18:57:00,
2013-01-05 14:02:00,32.0,23.0,30.13,NW,315,2.5,2.5,69,0.00,CLR,,0.00,WeatherDisplay:10.37,2013-01-05 19:02:00,
2013-01-05 14:07:00,32.4,23.3,30.13,West,270,4.6,4.6,69,0.00,CLR,,0.00,WeatherDisplay:10.37,2013-01-05 19:07:00,
2013-01-05 14:12:00,32.5,23.5,30.13,WNW,292,3.4,5.8,69,0.00,CLR,,0.00,WeatherDisplay:10.37,2013-01-05 19:12:00,
2013-01-05 14:17:00,33.1,23.7,30.13,NNW,338,3.4,5.8,68,0.00,CLR,,0.00,WeatherDisplay:10.37,2013-01-05 19:17:00,
2013-01-05 14:22:00,33.4,23.7,30.12,WSW,248,2.4,2.4,67,0.00,CLR,,0.00,WeatherDisplay:10.37,2013-01-05 19:22:00,
2013-01-05 14:28:00,33.8,23.6,30.12,WSW,248,4.0,5.8,66,0.00,CLR,,0.00,WeatherDisplay:10.37,2013-01-05 19:28:00,
2013-01-05 14:33:00,34.2,24.0,30.12,WSW,248,2.8,3.5,66,0.00,CLR,,0.00,WeatherDisplay:10.37,2013-01-05 19:33:00,
2013-01-05 14:38:00,34.3,23.8,30.12,NNW,338,1.2,4.6,65,0.00,CLR,,0.00,WeatherDisplay:10.37,2013-01-05 19:38:00,
2013-01-05 14:43:00,35.1,24.1,30.12,NNW,338,2.4,2.4,64,0.00,CLR,,0.00,WeatherDisplay:10.37,2013-01-05 19:43:00,
2013-01-05 14:48:00,35.4,24.1,30.13,WSW,248,2.1,4.6,63,0.00,CLR,,0.00,WeatherDisplay:10.37,2013-01-05 19:48:00,
2013-01-05 14:53:00,36.0,25.3,30.12,WSW,248,1.5,1.5,65,0.00,CLR,,0.00,WeatherDisplay:10.37,2013-01-05 19:53:00,
2013-01-05 14:58:00,36.7,24.9,30.12,NW,315,2.1,2.1,62,0.00,CLR,,0.00,WeatherDisplay:10.37,2013-01-05 19:58:00,
2013-01-05 15:03:00,36.5,24.7,30.12,NNW,338,2.4,4.6,62,0.00,CLR,,0.00,WeatherDisplay:10.37,2013-01-05 20:03:00,
2013-01-05 15:08:00,35.1,23.7,30.13,West,270,4.0,4.6,63,0.00,CLR,,0.00,WeatherDisplay:10.37,2013-01-05 20:08:00,
2013-01-05 15:13:00,34.3,23.4,30.13,NW,315,1.5,1.5,64,0.00,CLR,,0.00,WeatherDisplay:10.37,2013-01-05 20:13:00,
2013-01-05 15:18:00,34.9,24.3,30.12,West,270,1.5,1.5,65,0.00,CLR,,0.00,WeatherDisplay:10.37,2013-01-05 20:18:00,
2013-01-05 15:23:00,35.2,23.5,30.12,WNW,292,3.7,3.7,62,0.00,CLR,,0.00,WeatherDisplay:10.37,2013-01-05 20:23:00,
2013-01-05 15:28:00,34.7,23.8,30.12,West,270,1.8,2.3,64,0.00,CLR,,0.00,WeatherDisplay:10.37,2013-01-05 20:28:00,
2013-01-05 15:33:00,34.2,23.2,30.12,WNW,292,1.5,1.5,64,0.00,CLR,,0.00,WeatherDisplay:10.37,2013-01-05 20:33:00,
2013-01-05 15:38:00,34.0,23.4,30.13,NW,315,0.6,1.1,65,0.00,CLR,,0.00,WeatherDisplay:10.37,2013-01-05 20:38:00,
2013-01-05 15:43:00,34.0,23.4,30.13,West,270,1.2,2.3,65,0.00,CLR,,0.00,WeatherDisplay:10.37,2013-01-05 20:43:00,
2013-01-05 15:48:00,34.2,24.0,30.13,WSW,248,1.5,2.3,66,0.00,CLR,,0.00,WeatherDisplay:10.37,2013-01-05 20:48:00,
2013-01-05 15:53:00,34.0,23.1,30.13,West,270,1.8,2.3,64,0.00,CLR,,0.00,WeatherDisplay:10.37,2013-01-05 20:53:00,
2013-01-05 15:58:00,33.8,23.6,30.13,WSW,248,2.4,2.4,66,0.00,CLR,,0.00,WeatherDisplay:10.37,2013-01-05 20:58:00,
2013-01-05 16:03:00,33.4,23.3,30.13,WSW,248,2.1,2.3,66,0.00,CLR,,0.00,WeatherDisplay:10.37,2013-01-05 21:03:00,
2013-01-05 16:08:00,33.6,23.5,30.13,WSW,248,0.0,0.0,66,0.00,CLR,,0.00,WeatherDisplay:10.37,2013-01-05 21:08:00,
2013-01-05 16:13:00,33.8,24.0,30.12,WSW,248,0.0,0.0,67,0.00,CLR,,0.00,WeatherDisplay:10.37,2013-01-05 21:13:00,
2013-01-05 16:18:00,33.8,23.6,30.12,WSW,248,0.0,0.0,66,0.00,CLR,,0.00,WeatherDisplay:10.37,2013-01-05 21:18:00,
2013-01-05 16:23:00,34.0,24.2,30.12,WSW,248,0.0,0.0,67,0.00,CLR,,0.00,WeatherDisplay:10.37,2013-01-05 21:23:00,
2013-01-05 16:28:00,33.8,24.0,30.11,WSW,248,0.0,0.0,67,0.00,CLR,,0.00,WeatherDisplay:10.37,2013-01-05 21:28:00,
2013-01-05 16:33:00,33.8,24.0,30.11,WSW,248,0.0,0.0,67,0.00,CLR,,0.00,WeatherDisplay:10.37,2013-01-05 21:33:00,
2013-01-05 16:38:00,33.8,24.4,30.11,SSE,158,1.5,1.5,68,0.00,CLR,,0.00,WeatherDisplay:10.37,2013-01-05 21:38:00,
2013-01-05 16:43:00,33.4,24.0,30.10,SE,135,3.1,3.1,68,0.00,CLR,,0.00,WeatherDisplay:10.37,2013-01-05 21:43:00,
2013-01-05 16:48:00,33.1,23.7,30.10,SSE,158,1.5,1.5,68,0.00,CLR,,0.00,WeatherDisplay:10.37,2013-01-05 21:48:00,
2013-01-05 16:53:00,32.7,23.3,30.10,SSE,158,0.0,1.1,68,0.00,CLR,,0.00,WeatherDisplay:10.37,2013-01-05 21:53:00,
2013-01-05 16:58:00,32.5,23.1,30.10,SSE,158,0.0,0.0,68,0.00,CLR,,0.00,WeatherDisplay:10.37,2013-01-05 21:58:00,
2013-01-05 17:03:00,32.0,23.0,30.09,SSE,158,0.0,0.0,69,0.00,CLR,,0.00,WeatherDisplay:10.37,2013-01-05 22:03:00,
2013-01-05 17:08:00,31.5,22.1,30.09,SSE,158,0.0,0.0,68,0.00,CLR,,0.00,WeatherDisplay:10.37,2013-01-05 22:08:00,
2013-01-05 17:13:00,31.1,22.1,30.10,SSE,158,0.0,0.0,69,0.00,CLR,,0.00,WeatherDisplay:10.37,2013-01-05 22:13:00,
2013-01-05 17:18:00,30.9,21.9,30.10,SSE,158,0.0,0.0,69,0.00,CLR,,0.00,WeatherDisplay:10.37,2013-01-05 22:18:00,
2013-01-05 17:23:00,30.6,21.6,30.10,SSE,158,0.0,0.0,69,0.00,CLR,,0.00,WeatherDisplay:10.37,2013-01-05 22:23:00,
2013-01-05 17:28:00,30.2,21.6,30.10,SSE,158,0.0,0.0,70,0.00,CLR,,0.00,WeatherDisplay:10.37,2013-01-05 22:28:00,
2013-01-05 17:33:00,29.8,21.2,30.10,SSE,158,0.6,0.6,70,0.00,CLR,,0.00,WeatherDisplay:10.37,2013-01-05 22:33:00,
2013-01-05 17:38:00,29.7,21.1,30.10,SSE,158,1.5,1.5,70,0.00,CLR,,0.00,WeatherDisplay:10.37,2013-01-05 22:38:00,
2013-01-05 17:43:00,29.3,20.7,30.10,SSE,158,0.6,1.1,70,0.00,CLR,,0.00,WeatherDisplay:10.37,2013-01-05 22:43:00,
2013-01-05 17:48:00,29.1,20.6,30.10,SSE,158,1.2,1.2,70,0.00,CLR,,0.00,WeatherDisplay:10.37,2013-01-05 22:48:00,
2013-01-05 17:53:00,28.9,20.7,30.10,SE,135,1.5,1.5,71,0.00,CLR,,0.00,WeatherDisplay:10.37,2013-01-05 22:53:00,
2013-01-05 17:58:00,28.6,20.4,30.11,SSE,158,0.0,0.0,71,0.00,CLR,,0.00,WeatherDisplay:10.37,2013-01-05 22:58:00,
2013-01-05 18:03:00,28.4,20.2,30.10,SSE,158,0.0,1.1,71,0.00,CLR,,0.00,WeatherDisplay:10.37,2013-01-05 23:03:00,
2013-01-05 18:08:00,28.4,20.5,30.10,SSE,158,0.6,1.1,72,0.00,CLR,,0.00,WeatherDisplay:10.37,2013-01-05 23:08:00,
2013-01-05 18:13:00,28.2,20.3,30.10,SSE,158,0.9,1.1,72,0.00,CLR,,0.00,WeatherDisplay:10.37,2013-01-05 23:13:00,
2013-01-05 18:18:00,27.9,20.0,30.10,SSE,158,1.2,1.2,72,0.00,CLR,,0.00,WeatherDisplay:10.37,2013-01-05 23:18:00,
2013-01-05 18:23:00,27.7,20.2,30.10,SSE,158,0.0,1.1,73,0.00,CLR,,0.00,WeatherDisplay:10.37,2013-01-05 23:23:00,
2013-01-05 18:28:00,27.7,20.2,30.09,SSE,158,0.6,1.1,73,0.00,CLR,,0.00,WeatherDisplay:10.37,2013-01-05 23:28:00,
2013-01-05 18:33:00,27.3,19.8,30.08,SE,135,0.6,1.1,73,0.00,CLR,,0.00,WeatherDisplay:10.37,2013-01-05 23:33:00,
2013-01-05 18:38:00,27.1,19.6,30.09,SE,135,0.0,0.0,73,0.00,CLR,,0.00,WeatherDisplay:10.37,2013-01-05 23:38:00,
2013-01-05 18:43:00,27.1,19.9,30.09,SE,135,0.0,0.0,74,0.00,CLR,,0.00,WeatherDisplay:10.37,2013-01-05 23:43:00,
2013-01-05 18:48:00,27.0,19.8,30.09,ESE,112,2.1,2.1,74,0.00,CLR,,0.00,WeatherDisplay:10.37,2013-01-05 23:48:00,
2013-01-05 18:53:00,26.6,19.4,30.09,ESE,112,0.3,1.1,74,0.00,CLR,,0.00,WeatherDisplay:10.37,2013-01-05 23:53:00,
2013-01-05 18:58:00,26.4,19.3,30.09,ESE,112,1.5,2.3,74,0.00,CLR,,0.00,WeatherDisplay:10.37,2013-01-05 23:58:00,
2013-01-05 19:03:00,26.2,19.4,30.08,ESE,112,2.1,2.1,75,0.00,CLR,,0.00,WeatherDisplay:10.37,2013-01-06 00:03:00,
2013-01-05 19:08:00,26.1,19.2,30.08,ESE,112,1.5,1.5,75,0.00,CLR,,0.00,WeatherDisplay:10.37,2013-01-06 00:08:00,
2013-01-05 19:13:00,25.9,19.0,30.09,ESE,112,0.0,1.1,75,0.00,CLR,,0.00,WeatherDisplay:10.37,2013-01-06 00:13:00,
2013-01-05 19:18:00,25.9,19.0,30.10,ESE,112,1.2,1.2,75,0.00,CLR,,0.00,WeatherDisplay:10.37,2013-01-06 00:18:00,
2013-01-05 19:23:00,25.7,18.9,30.10,SSE,158,0.0,2.3,75,0.00,CLR,,0.00,WeatherDisplay:10.37,2013-01-06 00:23:00,
2013-01-05 19:28:00,25.7,18.9,30.10,SSE,158,0.0,0.0,75,0.00,CLR,,0.00,WeatherDisplay:10.37,2013-01-06 00:28:00,
2013-01-05 19:33:00,25.7,18.9,30.09,SE,135,1.5,2.3,75,0.00,CLR,,0.00,WeatherDisplay:10.37,2013-01-06 00:33:00,
2013-01-05 19:38:00,25.9,19.4,30.09,SE,135,1.5,1.5,76,0.00,CLR,,0.00,WeatherDisplay:10.37,2013-01-06 00:38:00,
2013-01-05 19:43:00,26.1,19.5,30.09,ESE,112,2.4,3.5,76,0.00,CLR,,0.00,WeatherDisplay:10.37,2013-01-06 00:43:00,
2013-01-05 19:48:00,26.1,19.8,30.08,ESE,112,1.5,2.3,77,0.00,CLR,,0.00,WeatherDisplay:10.37,2013-01-06 00:48:00,
2013-01-05 19:53:00,26.1,19.8,30.09,ESE,112,0.0,0.0,77,0.00,CLR,,0.00,WeatherDisplay:10.37,2013-01-06 00:53:00,
2013-01-05 19:58:00,26.2,20.0,30.09,ESE,112,0.0,1.1,77,0.00,CLR,,0.00,WeatherDisplay:10.37,2013-01-06 00:58:00,
2013-01-05 20:03:00,26.2,20.0,30.08,ESE,112,0.6,0.6,77,0.00,CLR,,0.00,WeatherDisplay:10.37,2013-01-06 01:03:00,
2013-01-05 20:08:00,26.1,19.8,30.08,ESE,112,0.9,2.3,77,0.00,CLR,,0.00,WeatherDisplay:10.37,2013-01-06 01:08:00,
2013-01-05 20:13:00,26.2,20.0,30.08,SE,135,1.5,1.5,77,0.00,CLR,,0.00,WeatherDisplay:10.37,2013-01-06 01:13:00,
2013-01-05 20:18:00,26.2,20.0,30.08,SE,135,0.0,0.0,77,0.00,CLR,,0.00,WeatherDisplay:10.37,2013-01-06 01:18:00,
2013-01-05 20:23:00,26.4,20.2,30.08,SE,135,1.5,1.5,77,0.00,CLR,,0.00,WeatherDisplay:10.37,2013-01-06 01:23:00,
2013-01-05 20:28:00,26.4,20.2,30.08,SE,135,0.6,1.1,77,0.00,CLR,,0.00,WeatherDisplay:10.37,2013-01-06 01:28:00,
2013-01-05 20:33:00,26.6,20.4,30.08,SE,135,2.1,2.1,77,0.00,CLR,,0.00,WeatherDisplay:10.37,2013-01-06 01:33:00,
2013-01-05 20:38:00,26.6,20.7,30.08,SE,135,1.5,2.3,78,0.00,CLR,,0.00,WeatherDisplay:10.37,2013-01-06 01:38:00,
2013-01-05 20:43:00,26.6,20.7,30.07,ESE,112,0.6,1.1,78,0.00,CLR,,0.00,WeatherDisplay:10.37,2013-01-06 01:43:00,
2013-01-05 20:48:00,26.8,20.8,30.07,ESE,112,0.0,0.0,78,0.00,CLR,,0.00,WeatherDisplay:10.37,2013-01-06 01:48:00,
2013-01-05 20:53:00,27.0,21.0,30.07,SE,135,2.4,2.4,78,0.00,CLR,,0.00,WeatherDisplay:10.37,2013-01-06 01:53:00,
2013-01-05 20:58:00,27.1,21.2,30.07,SE,135,1.8,1.8,78,0.00,CLR,,0.00,WeatherDisplay:10.37,2013-01-06 01:58:00,
2013-01-05 21:03:00,27.3,21.4,30.07,SE,135,2.4,2.4,78,0.00,CLR,,0.00,WeatherDisplay:10.37,2013-01-06 02:03:00,
2013-01-05 21:08:00,27.7,21.7,30.07,SE,135,1.2,2.3,78,0.00,CLR,,0.00,WeatherDisplay:10.37,2013-01-06 02:08:00,
2013-01-05 21:13:00,27.7,21.7,30.06,ESE,112,0.9,1.1,78,0.00,CLR,,0.00,WeatherDisplay:10.37,2013-01-06 02:13:00,
2013-01-05 21:18:00,27.9,21.9,30.08,SSE,158,1.5,3.5,78,0.00,CLR,,0.00,WeatherDisplay:10.37,2013-01-06 02:18:00,
2013-01-05 21:23:00,28.0,22.1,30.08,SE,135,1.5,2.3,78,0.00,CLR,,0.00,WeatherDisplay:10.37,2013-01-06 02:23:00,
2013-01-05 21:28:00,28.2,22.2,30.07,South,180,2.1,2.1,78,0.00,CLR,,0.00,WeatherDisplay:10.37,2013-01-06 02:28:00,
2013-01-05 21:33:00,28.4,22.4,30.07,South,180,1.5,1.5,78,0.00,CLR,,0.00,WeatherDisplay:10.37,2013-01-06 02:33:00,
2013-01-05 21:38:00,28.6,22.6,30.07,SW,225,0.3,1.1,78,0.00,CLR,,0.00,WeatherDisplay:10.37,2013-01-06 02:38:00,
2013-01-05 21:43:00,28.8,22.8,30.05,SSE,158,0.6,2.3,78,0.00,CLR,,0.00,WeatherDisplay:10.37,2013-01-06 02:43:00,
2013-01-05 21:48:00,29.1,22.8,30.06,SW,225,2.4,2.4,77,0.00,CLR,,0.00,WeatherDisplay:10.37,2013-01-06 02:48:00,
2013-01-05 21:53:00,29.5,23.2,30.06,SSW,202,0.3,1.1,77,0.00,CLR,,0.00,WeatherDisplay:10.37,2013-01-06 02:53:00,
2013-01-05 21:58:00,29.7,23.3,30.06,SSW,202,0.3,0.3,77,0.00,CLR,,0.00,WeatherDisplay:10.37,2013-01-06 02:58:00,
2013-01-05 22:03:00,29.8,23.5,30.05,SW,225,2.5,3.5,77,0.00,CLR,,0.00,WeatherDisplay:10.37,2013-01-06 03:03:00,
2013-01-05 22:08:00,30.2,23.9,30.06,SW,225,0.6,2.3,77,0.00,CLR,,0.00,WeatherDisplay:10.37,2013-01-06 03:08:00,
2013-01-05 22:13:00,30.4,23.7,30.05,SW,225,3.4,5.8,76,0.00,CLR,,0.00,WeatherDisplay:10.37,2013-01-06 03:13:00,
2013-01-05 22:18:00,30.6,23.9,30.04,SSE,158,1.5,3.5,76,0.00,CLR,,0.00,WeatherDisplay:10.37,2013-01-06 03:18:00,
2013-01-05 22:23:00,30.7,24.1,30.04,SSW,202,0.9,4.6,76,0.00,CLR,,0.00,WeatherDisplay:10.37,2013-01-06 03:23:00,
2013-01-05 22:28:00,30.9,23.9,30.03,SSE,158,1.5,5.8,75,0.00,CLR,,0.00,WeatherDisplay:10.37,2013-01-06 03:28:00,
2013-01-05 22:33:00,31.1,23.8,30.04,South,180,1.5,4.6,74,0.00,CLR,,0.00,WeatherDisplay:10.37,2013-01-06 03:33:00,
2013-01-05 22:38:00,31.3,23.6,30.04,SW,225,1.2,1.2,73,0.00,CLR,,0.00,WeatherDisplay:10.37,2013-01-06 03:38:00,
2013-01-05 22:43:00,31.3,23.6,30.04,SW,225,4.3,4.3,73,0.00,CLR,,0.00,WeatherDisplay:10.37,2013-01-06 03:43:00,
2013-01-05 22:48:00,31.5,23.8,30.04,SW,225,2.8,2.8,73,0.00,CLR,,0.00,WeatherDisplay:10.37,2013-01-06 03:48:00,
2013-01-05 22:53:00,31.6,23.6,30.03,SSW,202,0.6,1.1,72,0.00,CLR,,0.00,WeatherDisplay:10.37,2013-01-06 03:53:00,
2013-01-05 22:58:00,31.6,23.6,30.03,SSE,158,0.6,2.3,72,0.00,CLR,,0.00,WeatherDisplay:10.37,2013-01-06 03:58:00,
2013-01-05 23:03:00,31.6,23.0,30.04,West,270,2.4,2.4,70,0.00,CLR,,0.00,WeatherDisplay:10.37,2013-01-06 04:03:00,
2013-01-05 23:08:00,31.8,22.1,30.04,NW,315,3.4,3.5,67,0.00,CLR,,0.00,WeatherDisplay:10.37,2013-01-06 04:08:00,
2013-01-05 23:13:00,31.6,22.3,30.05,NW,315,3.1,4.6,68,0.00,CLR,,0.00,WeatherDisplay:10.37,2013-01-06 04:13:00,
2013-01-05 23:18:00,31.3,22.3,30.04,West,270,3.1,3.5,69,0.00,CLR,,0.00,WeatherDisplay:10.37,2013-01-06 04:18:00,
2013-01-05 23:23:00,31.3,22.6,30.04,NW,315,0.3,3.5,70,0.00,CLR,,0.00,WeatherDisplay:10.37,2013-01-06 04:23:00,
2013-01-05 23:28:00,30.7,22.4,30.04,NW,315,1.2,2.3,71,0.00,CLR,,0.00,WeatherDisplay:10.37,2013-01-06 04:28:00,
2013-01-05 23:33:00,30.6,22.6,30.04,NW,315,0.3,1.1,72,0.00,CLR,,0.00,WeatherDisplay:10.37,2013-01-06 04:33:00,
2013-01-05 23:38:00,30.4,22.8,30.04,NW,315,0.9,0.0,73,0.00,CLR,,0.00,WeatherDisplay:10.37,2013-01-06 04:38:00,
2013-01-05 23:43:00,30.2,22.6,30.03,NW,315,0.0,0.0,73,0.00,CLR,,0.00,WeatherDisplay:10.37,2013-01-06 04:43:00,
2013-01-05 23:48:00,30.2,22.6,30.03,NW,315,0.0,0.0,73,0.00,CLR,,0.00,WeatherDisplay:10.37,2013-01-06 04:48:00,
2013-01-05 23:53:00,30.2,22.6,30.04,NW,315,0.0,0.0,73,0.00,CLR,,0.00,WeatherDisplay:10.37,2013-01-06 04:53:00,
2013-01-05 23:58:00,30.2,22.9,30.03,SW,225,0.0,1.1,74,0.00,CLR,,0.00,WeatherDisplay:10.37,2013-01-06 04:58:00,